createdAt,value
2018-10-03T00:02:23.415Z,13.50
2018-10-03T00:04:51.911Z,13.50
2018-10-03T00:07:20.381Z,13.50
2018-10-03T00:09:49.057Z,13.50
2018-10-03T00:12:17.528Z,13.30
2018-10-03T00:14:46.056Z,13.20
2018-10-03T00:17:14.504Z,13.30
2018-10-03T00:19:42.960Z,13.30
2018-10-03T00:22:11.457Z,13.00
2018-10-03T00:24:39.877Z,12.90
2018-10-03T00:27:08.325Z,12.80
2018-10-03T00:29:36.825Z,12.90
2018-10-03T00:32:05.350Z,13.00
2018-10-03T00:34:33.800Z,13.00
2018-10-03T00:37:02.298Z,12.90
2018-10-03T00:39:30.850Z,13.00
2018-10-03T00:41:59.397Z,13.00
2018-10-03T00:44:27.862Z,13.00
2018-10-03T00:46:56.286Z,12.90
2018-10-03T00:49:24.945Z,12.80
2018-10-03T00:51:53.403Z,12.70
2018-10-03T00:54:21.882Z,12.60
2018-10-03T00:56:50.348Z,12.80
2018-10-03T00:59:18.851Z,12.80
2018-10-03T01:01:47.327Z,12.80
2018-10-03T01:04:15.774Z,12.70
2018-10-03T01:06:44.245Z,12.40
2018-10-03T01:09:12.733Z,12.40
2018-10-03T01:11:41.208Z,12.40
2018-10-03T01:14:09.692Z,12.40
2018-10-03T01:16:38.132Z,12.40
2018-10-03T01:19:06.617Z,12.40
2018-10-03T01:21:35.100Z,12.50
2018-10-03T01:24:03.591Z,12.50
2018-10-03T01:26:32.031Z,12.40
2018-10-03T01:29:00.527Z,12.40
2018-10-03T01:31:29.028Z,12.50
2018-10-03T01:33:57.562Z,12.40
2018-10-03T01:36:26.052Z,12.40
2018-10-03T01:38:54.528Z,12.30
2018-10-03T01:41:23.038Z,12.30
2018-10-03T01:43:51.489Z,12.40
2018-10-03T01:46:20.002Z,12.40
2018-10-03T01:48:48.502Z,12.50
2018-10-03T01:51:16.994Z,12.60
2018-10-03T01:53:45.476Z,12.70
2018-10-03T01:56:13.908Z,12.70
2018-10-03T01:58:42.541Z,12.50
2018-10-03T02:01:11.049Z,12.40
2018-10-03T02:03:39.525Z,12.40
2018-10-03T02:06:08.005Z,12.40
2018-10-03T02:08:36.536Z,12.40
2018-10-03T02:11:05.968Z,12.40
2018-10-03T02:13:34.438Z,12.40
2018-10-03T02:16:02.922Z,12.40
2018-10-03T02:18:31.384Z,12.40
2018-10-03T02:20:59.862Z,12.30
2018-10-03T02:23:28.311Z,12.30
2018-10-03T02:25:56.740Z,12.40
2018-10-03T02:28:25.198Z,12.40
2018-10-03T02:30:53.652Z,12.40
2018-10-03T02:33:22.554Z,12.40
2018-10-03T02:35:51.322Z,12.40
2018-10-03T02:38:20.735Z,12.40
2018-10-03T02:40:49.502Z,12.40
2018-10-03T02:43:18.041Z,12.50
2018-10-03T02:45:46.693Z,12.40
2018-10-03T02:48:15.686Z,12.30
2018-10-03T02:50:44.657Z,12.40
2018-10-03T02:53:14.276Z,12.50
2018-10-03T02:55:43.128Z,12.40
2018-10-03T02:58:12.206Z,12.40
2018-10-03T03:00:41.299Z,12.50
2018-10-03T03:03:10.299Z,12.60
2018-10-03T03:05:39.041Z,12.60
2018-10-03T03:08:07.802Z,12.50
2018-10-03T03:10:36.639Z,12.30
2018-10-03T03:13:05.267Z,12.20
2018-10-03T03:15:34.103Z,12.30
2018-10-03T03:18:02.798Z,12.30
2018-10-03T03:20:31.429Z,12.20
2018-10-03T03:22:59.882Z,12.30
2018-10-03T03:25:28.416Z,12.30
2018-10-03T03:27:56.890Z,12.20
2018-10-03T03:30:25.385Z,12.20
2018-10-03T03:32:53.874Z,12.20
2018-10-03T03:35:22.345Z,12.20
2018-10-03T03:37:50.816Z,12.20
2018-10-03T03:40:19.232Z,12.10
2018-10-03T03:42:47.676Z,12.00
2018-10-03T03:45:16.170Z,12.10
2018-10-03T03:47:44.786Z,12.00
2018-10-03T03:50:13.253Z,12.00
2018-10-03T03:52:41.710Z,11.90
2018-10-03T03:55:10.226Z,11.90
2018-10-03T03:57:38.744Z,11.90
2018-10-03T04:00:07.280Z,11.80
2018-10-03T04:02:35.745Z,11.80
2018-10-03T04:05:04.236Z,11.60
2018-10-03T04:07:32.737Z,11.60
2018-10-03T04:10:01.194Z,11.60
2018-10-03T04:12:29.725Z,11.50
2018-10-03T04:14:58.207Z,11.40
2018-10-03T04:17:26.676Z,11.50
2018-10-03T04:19:55.200Z,11.50
2018-10-03T04:22:23.688Z,11.60
2018-10-03T04:24:52.202Z,11.70
2018-10-03T04:27:20.685Z,11.70
2018-10-03T04:29:49.216Z,11.80
2018-10-03T04:32:17.697Z,11.80
2018-10-03T04:34:46.149Z,11.90
2018-10-03T04:37:14.631Z,11.80
2018-10-03T04:39:43.113Z,11.90
2018-10-03T04:42:11.675Z,11.80
2018-10-03T04:44:40.117Z,11.80
2018-10-03T04:47:08.588Z,11.90
2018-10-03T04:49:37.090Z,11.80
2018-10-03T04:52:05.579Z,11.90
2018-10-03T04:54:34.095Z,11.70
2018-10-03T04:57:02.611Z,11.80
2018-10-03T04:59:31.121Z,11.80
2018-10-03T05:01:59.601Z,11.80
2018-10-03T05:04:28.075Z,11.80
2018-10-03T05:06:56.558Z,11.80
2018-10-03T05:09:25.025Z,11.70
2018-10-03T05:11:53.541Z,11.70
2018-10-03T05:14:22.021Z,11.80
2018-10-03T05:16:50.518Z,11.70
2018-10-03T05:19:18.998Z,11.70
2018-10-03T05:21:47.456Z,11.60
2018-10-03T05:24:15.962Z,11.50
2018-10-03T05:26:44.423Z,11.60
2018-10-03T05:29:12.949Z,11.60
2018-10-03T05:31:41.429Z,11.70
2018-10-03T05:34:10.129Z,11.70
2018-10-03T05:36:38.629Z,11.60
2018-10-03T05:39:09.223Z,11.60
2018-10-03T05:41:37.673Z,11.60
2018-10-03T05:44:06.136Z,11.60
2018-10-03T05:46:34.597Z,11.70
2018-10-03T05:49:03.088Z,11.80
2018-10-03T05:51:31.535Z,11.90
2018-10-03T05:54:00.062Z,11.90
2018-10-03T05:56:28.569Z,11.80
2018-10-03T05:58:57.205Z,11.60
2018-10-03T06:01:25.704Z,11.50
2018-10-03T06:03:54.265Z,11.50
2018-10-03T06:06:22.708Z,11.60
2018-10-03T06:08:51.208Z,11.70
2018-10-03T06:11:19.732Z,11.70
2018-10-03T06:13:48.237Z,11.70
2018-10-03T06:16:16.779Z,11.70
2018-10-03T06:18:45.367Z,11.70
2018-10-03T06:21:13.808Z,11.70
2018-10-03T06:23:42.310Z,11.60
2018-10-03T06:26:10.820Z,11.70
2018-10-03T06:28:39.316Z,11.70
2018-10-03T06:31:07.994Z,11.70
2018-10-03T06:33:36.593Z,11.90
2018-10-03T06:36:05.090Z,11.60
2018-10-03T06:38:33.627Z,11.70
2018-10-03T06:41:02.153Z,11.90
2018-10-03T06:43:30.695Z,11.90
2018-10-03T06:45:59.223Z,11.80
2018-10-03T06:48:27.708Z,12.00
2018-10-03T06:50:56.316Z,11.90
2018-10-03T06:53:24.823Z,11.80
2018-10-03T06:55:53.387Z,11.80
2018-10-03T06:58:21.872Z,11.90
2018-10-03T07:00:50.453Z,11.90
2018-10-03T07:03:18.934Z,12.00
2018-10-03T07:05:47.814Z,12.00
2018-10-03T07:08:16.279Z,12.20
2018-10-03T07:10:44.824Z,12.20
2018-10-03T07:13:13.420Z,12.40
2018-10-03T07:15:41.911Z,12.50
2018-10-03T07:18:10.434Z,12.50
2018-10-03T07:20:39.016Z,12.60
2018-10-03T07:23:07.529Z,12.70
2018-10-03T07:25:36.068Z,12.80
2018-10-03T07:28:04.660Z,13.00
2018-10-03T07:30:33.190Z,13.10
2018-10-03T07:33:01.727Z,13.00
2018-10-03T07:35:30.283Z,13.20
2018-10-03T07:37:58.842Z,13.40
2018-10-03T07:40:27.405Z,13.40
2018-10-03T07:42:55.908Z,13.40
2018-10-03T07:45:24.368Z,13.30
2018-10-03T07:47:52.875Z,13.30
2018-10-03T07:50:21.412Z,13.20
2018-10-03T07:52:49.915Z,13.40
2018-10-03T07:55:18.431Z,13.50
2018-10-03T07:57:47.021Z,13.50
2018-10-03T08:00:16.013Z,13.50
2018-10-03T08:02:44.555Z,13.40
2018-10-03T08:05:13.045Z,13.50
2018-10-03T08:07:41.526Z,13.80
2018-10-03T08:10:10.077Z,14.00
2018-10-03T08:12:39.394Z,14.30
2018-10-03T08:15:08.412Z,14.50
2018-10-03T08:17:36.906Z,14.50
2018-10-03T08:20:05.897Z,14.60
2018-10-03T08:22:34.393Z,14.40
2018-10-03T08:25:02.967Z,14.50
2018-10-03T08:27:31.537Z,14.70
2018-10-03T08:30:00.103Z,14.80
2018-10-03T08:32:28.615Z,14.90
2018-10-03T08:34:57.940Z,15.20
2018-10-03T08:37:26.424Z,15.50
2018-10-03T08:39:55.602Z,15.80
2018-10-03T08:42:24.360Z,15.70
2018-10-03T08:44:52.913Z,16.20
2018-10-03T08:47:21.445Z,16.40
2018-10-03T08:49:49.949Z,16.30
2018-10-03T08:52:18.562Z,16.40
2018-10-03T08:54:47.283Z,16.50
2018-10-03T08:57:16.632Z,16.40
2018-10-03T08:59:45.146Z,16.90
2018-10-03T09:02:14.487Z,17.00
2018-10-03T09:04:43.013Z,17.20
2018-10-03T09:07:11.498Z,16.80
2018-10-03T09:09:40.076Z,16.80
2018-10-03T09:12:08.617Z,16.50
2018-10-03T09:14:37.129Z,16.60
2018-10-03T09:17:06.327Z,16.80
2018-10-03T09:19:34.818Z,16.80
2018-10-03T09:22:03.320Z,16.60
2018-10-03T09:24:31.830Z,16.80
2018-10-03T09:27:01.029Z,17.10
2018-10-03T09:29:30.955Z,16.80
2018-10-03T09:32:00.315Z,16.50
2018-10-03T09:34:28.811Z,16.60
2018-10-03T09:36:57.306Z,17.00
2018-10-03T09:39:25.835Z,16.90
2018-10-03T09:41:54.941Z,16.20
2018-10-03T09:44:23.575Z,16.30
2018-10-03T09:46:52.065Z,16.50
2018-10-03T09:49:20.582Z,16.80
2018-10-03T09:51:49.256Z,16.70
2018-10-03T09:54:17.837Z,16.70
2018-10-03T09:56:46.308Z,16.80
2018-10-03T09:59:14.874Z,16.60
2018-10-03T10:01:43.396Z,16.50
2018-10-03T10:04:11.896Z,16.60
2018-10-03T10:06:40.429Z,16.50
2018-10-03T10:09:10.000Z,16.30
2018-10-03T10:11:38.630Z,16.40
2018-10-03T10:14:07.129Z,16.20
2018-10-03T10:16:35.687Z,16.60
2018-10-03T10:19:04.619Z,16.50
2018-10-03T10:21:33.155Z,16.30
2018-10-03T10:24:01.696Z,16.20
2018-10-03T10:26:30.207Z,16.40
2018-10-03T10:28:58.747Z,16.50
2018-10-03T10:31:27.390Z,16.60
2018-10-03T10:33:55.927Z,16.60
2018-10-03T10:36:24.435Z,16.50
2018-10-03T10:38:53.053Z,16.40
2018-10-03T10:41:21.643Z,16.40
2018-10-03T10:43:50.080Z,16.70
2018-10-03T10:46:18.530Z,16.90
2018-10-03T10:48:47.600Z,17.00
2018-10-03T10:51:16.168Z,16.90
2018-10-03T10:53:44.661Z,16.80
2018-10-03T10:56:13.169Z,16.70
2018-10-03T10:58:42.555Z,17.00
2018-10-03T11:01:12.000Z,16.90
2018-10-03T11:03:40.523Z,17.10
2018-10-03T11:06:09.090Z,17.30
2018-10-03T11:08:37.536Z,17.40
2018-10-03T11:11:06.016Z,17.40
2018-10-03T11:13:34.520Z,17.30
2018-10-03T11:16:03.622Z,17.40
2018-10-03T11:18:33.057Z,17.40
2018-10-03T11:21:01.496Z,17.30
2018-10-03T11:23:30.019Z,17.30
2018-10-03T11:25:58.497Z,17.20
2018-10-03T11:28:27.000Z,17.20
2018-10-03T11:30:55.463Z,17.30
2018-10-03T11:33:24.000Z,17.40
2018-10-03T11:35:53.496Z,17.60
2018-10-03T11:38:22.102Z,17.60
2018-10-03T11:40:50.525Z,17.50
2018-10-03T11:43:19.068Z,17.30
2018-10-03T11:45:48.279Z,17.40
2018-10-03T11:48:16.738Z,17.30
2018-10-03T11:50:45.977Z,17.50
2018-10-03T11:53:14.390Z,17.40
2018-10-03T11:55:43.199Z,17.30
2018-10-03T11:58:11.706Z,17.20
2018-10-03T12:00:40.198Z,16.90
2018-10-03T12:03:08.887Z,16.80
2018-10-03T12:05:37.368Z,17.00
2018-10-03T12:08:05.890Z,17.10
2018-10-03T12:10:34.397Z,17.00
2018-10-03T12:13:03.576Z,16.90
2018-10-03T12:15:32.064Z,16.90
2018-10-03T12:18:00.574Z,17.00
2018-10-03T12:20:29.069Z,16.90
2018-10-03T12:22:57.670Z,17.00
2018-10-03T12:25:26.120Z,17.00
2018-10-03T12:27:54.617Z,16.70
2018-10-03T12:30:23.515Z,16.70
2018-10-03T12:32:51.989Z,16.90
2018-10-03T12:35:25.747Z,17.40
2018-10-03T12:37:54.809Z,17.40
2018-10-03T12:40:23.308Z,17.50
2018-10-03T12:42:53.457Z,18.00
2018-10-03T12:45:21.960Z,17.80
2018-10-03T12:47:50.490Z,17.80
2018-10-03T12:50:18.968Z,17.70
2018-10-03T12:52:48.489Z,17.90
2018-10-03T12:55:16.999Z,17.70
2018-10-03T12:57:46.345Z,17.50
2018-10-03T13:00:14.877Z,17.60
2018-10-03T13:02:44.088Z,17.50
2018-10-03T13:05:12.582Z,17.20
2018-10-03T13:07:42.140Z,17.40
2018-10-03T13:10:11.225Z,17.50
2018-10-03T13:12:39.740Z,17.50
2018-10-03T13:15:08.253Z,17.20
2018-10-03T13:17:36.754Z,17.30
2018-10-03T13:20:05.415Z,17.00
2018-10-03T13:22:33.913Z,17.10
2018-10-03T13:25:02.966Z,16.90
2018-10-03T13:27:31.478Z,17.00
2018-10-03T13:30:01.153Z,17.20
2018-10-03T13:32:30.405Z,17.20
2018-10-03T13:34:58.888Z,17.00
2018-10-03T13:37:27.489Z,16.90
2018-10-03T13:39:56.138Z,17.30
2018-10-03T13:42:24.605Z,17.30
2018-10-03T13:44:53.104Z,17.40
2018-10-03T13:47:21.584Z,17.60
2018-10-03T13:49:50.741Z,18.20
2018-10-03T13:52:19.429Z,17.90
2018-10-03T13:54:47.983Z,17.10
2018-10-03T13:57:16.517Z,17.00
2018-10-03T13:59:45.142Z,17.10
2018-10-03T14:02:13.941Z,16.90
2018-10-03T14:04:42.428Z,16.90
2018-10-03T14:07:10.952Z,16.90
2018-10-03T14:09:39.468Z,16.90
2018-10-03T14:12:08.018Z,17.10
2018-10-03T14:14:36.573Z,16.90
2018-10-03T14:17:05.065Z,16.80
2018-10-03T14:19:33.551Z,16.70
2018-10-03T14:22:02.049Z,16.80
2018-10-03T14:24:30.605Z,16.70
2018-10-03T14:26:59.020Z,16.50
2018-10-03T14:29:27.521Z,16.60
2018-10-03T14:31:56.024Z,16.60
2018-10-03T14:34:24.504Z,16.90
2018-10-03T14:36:52.962Z,16.80
2018-10-03T14:39:21.469Z,16.70
2018-10-03T14:41:49.964Z,16.70
2018-10-03T14:44:18.442Z,16.60
2018-10-03T14:46:47.078Z,16.70
2018-10-03T14:49:15.388Z,16.90
2018-10-03T14:51:43.919Z,17.00
2018-10-03T14:54:12.504Z,17.40
2018-10-03T14:56:41.005Z,17.00
2018-10-03T14:59:09.576Z,17.10
2018-10-03T15:01:38.149Z,17.10
2018-10-03T15:04:06.840Z,16.80
2018-10-03T15:06:35.340Z,16.60
2018-10-03T15:09:05.288Z,16.60
2018-10-03T15:11:33.803Z,16.40
2018-10-03T15:14:02.413Z,16.40
2018-10-03T15:16:30.997Z,16.50
2018-10-03T15:18:59.656Z,16.60
2018-10-03T15:21:28.257Z,16.80
2018-10-03T15:23:56.776Z,16.70
2018-10-03T15:26:25.238Z,16.60
2018-10-03T15:28:53.796Z,16.50
2018-10-03T15:31:22.323Z,16.30
2018-10-03T15:33:50.835Z,16.30
2018-10-03T15:36:19.389Z,16.20
2018-10-03T15:38:47.835Z,16.20
2018-10-03T15:41:16.358Z,16.30
2018-10-03T15:43:44.881Z,16.20
2018-10-03T15:46:13.341Z,16.00
2018-10-03T15:48:41.846Z,16.20
2018-10-03T15:51:10.424Z,16.00
2018-10-03T15:53:39.239Z,16.00
2018-10-03T15:56:08.589Z,15.90
2018-10-03T15:58:37.095Z,16.00
2018-10-03T16:01:06.040Z,15.90
2018-10-03T16:03:34.604Z,16.00
2018-10-03T16:06:03.113Z,15.90
2018-10-03T16:08:31.698Z,15.70
2018-10-03T16:11:00.202Z,15.60
2018-10-03T16:13:28.694Z,15.70
2018-10-03T16:15:57.224Z,15.70
2018-10-03T16:18:25.705Z,15.70
2018-10-03T16:20:54.251Z,15.60
2018-10-03T16:23:22.780Z,15.60
2018-10-03T16:25:51.375Z,15.70
2018-10-03T16:28:19.912Z,15.50
2018-10-03T16:30:48.511Z,15.60
2018-10-03T16:33:17.366Z,15.70
2018-10-03T16:35:45.894Z,15.60
2018-10-03T16:38:14.382Z,15.60
2018-10-03T16:40:42.945Z,15.50
2018-10-03T16:43:11.443Z,15.40
2018-10-03T16:45:39.909Z,15.30
2018-10-03T16:48:08.422Z,15.40
2018-10-03T16:50:36.920Z,15.40
2018-10-03T16:53:05.419Z,15.30
2018-10-03T16:55:33.878Z,15.30
2018-10-03T16:58:02.389Z,15.20
2018-10-03T17:00:30.906Z,15.20
2018-10-03T17:02:59.399Z,15.30
2018-10-03T17:05:27.921Z,15.20
2018-10-03T17:07:56.605Z,15.00
2018-10-03T17:10:25.084Z,15.10
2018-10-03T17:12:53.649Z,15.00
2018-10-03T17:15:22.137Z,14.90
2018-10-03T17:17:50.638Z,14.90
2018-10-03T17:20:19.137Z,14.90
2018-10-03T17:22:47.655Z,14.90
2018-10-03T17:25:16.160Z,15.00
2018-10-03T17:27:44.663Z,14.80
2018-10-03T17:30:13.312Z,14.80
2018-10-03T17:32:41.793Z,14.60
2018-10-03T17:35:10.354Z,14.50
2018-10-03T17:37:38.852Z,14.50
2018-10-03T17:40:07.496Z,14.50
2018-10-03T17:42:35.988Z,14.50
2018-10-03T17:45:04.557Z,14.40
2018-10-03T17:47:32.988Z,14.50
2018-10-03T17:50:01.562Z,14.50
2018-10-03T17:52:30.108Z,14.50
2018-10-03T17:54:58.687Z,14.20
2018-10-03T17:57:27.173Z,14.20
2018-10-03T17:59:55.691Z,14.10
2018-10-03T18:02:24.306Z,13.80
2018-10-03T18:04:52.963Z,14.00
2018-10-03T18:07:21.444Z,13.90
2018-10-03T18:09:51.848Z,14.00
2018-10-03T18:12:20.952Z,13.90
2018-10-03T18:14:49.531Z,13.70
2018-10-03T18:17:19.118Z,13.70
2018-10-03T18:19:47.739Z,13.70
2018-10-03T18:22:17.228Z,13.60
2018-10-03T18:24:46.570Z,13.60
2018-10-03T18:27:15.783Z,13.50
2018-10-03T18:29:44.378Z,13.60
2018-10-03T18:32:13.103Z,13.50
2018-10-03T18:34:41.936Z,13.60
2018-10-03T18:37:10.694Z,13.60
2018-10-03T18:39:39.661Z,13.50
2018-10-03T18:42:08.533Z,13.50
2018-10-03T18:44:38.580Z,13.50
2018-10-03T18:47:07.475Z,13.40
2018-10-03T18:49:36.624Z,13.50
2018-10-03T18:52:06.402Z,13.20
2018-10-03T18:54:36.866Z,13.10
2018-10-03T18:57:05.993Z,13.00
2018-10-03T18:59:35.506Z,13.10
2018-10-03T19:02:05.374Z,13.00
2018-10-03T19:04:35.360Z,12.90
2018-10-03T19:07:04.485Z,12.90
2018-10-03T19:09:33.607Z,13.00
2018-10-03T19:12:03.869Z,13.00
2018-10-03T19:14:32.776Z,12.90
2018-10-03T19:17:02.970Z,12.90
2018-10-03T19:19:31.976Z,12.90
2018-10-03T19:22:00.790Z,12.80
2018-10-03T19:24:29.975Z,12.70
2018-10-03T19:26:59.030Z,12.70
2018-10-03T19:29:28.159Z,12.50
2018-10-03T19:31:58.589Z,12.50
2018-10-03T19:34:27.893Z,12.50
2018-10-03T19:36:57.390Z,12.50
2018-10-03T19:39:26.330Z,12.60
2018-10-03T19:41:55.307Z,12.70
2018-10-03T19:44:23.811Z,12.70
2018-10-03T19:46:53.475Z,12.70
2018-10-03T19:49:23.587Z,12.60
2018-10-03T19:51:52.388Z,12.60
2018-10-03T19:54:21.590Z,12.50
2018-10-03T19:56:50.102Z,12.40
2018-10-03T19:59:18.742Z,12.50
2018-10-03T20:01:48.066Z,12.60
2018-10-03T20:04:16.614Z,12.50
2018-10-03T20:06:45.582Z,12.30
2018-10-03T20:09:14.515Z,12.20
2018-10-03T20:11:44.653Z,12.30
2018-10-03T20:14:13.504Z,12.40
2018-10-03T20:16:42.953Z,12.40
2018-10-03T20:19:12.352Z,12.40
2018-10-03T20:21:43.734Z,12.20
2018-10-03T20:24:14.346Z,12.30
2018-10-03T20:26:44.181Z,12.30
2018-10-03T20:29:14.740Z,12.20
2018-10-03T20:31:43.457Z,12.30
2018-10-03T20:34:12.279Z,12.20
2018-10-03T20:36:40.835Z,12.20
2018-10-03T20:39:10.261Z,12.20
2018-10-03T20:41:42.018Z,12.30
2018-10-03T20:44:10.639Z,12.20
2018-10-03T20:46:40.537Z,12.20
2018-10-03T20:49:09.113Z,12.10
2018-10-03T20:51:37.628Z,12.10
2018-10-03T20:54:06.406Z,12.10
2018-10-03T20:56:34.964Z,12.20
2018-10-03T20:59:04.059Z,12.20
2018-10-03T21:01:32.633Z,12.30
2018-10-03T21:04:01.683Z,12.30
2018-10-03T21:06:30.251Z,12.20
2018-10-03T21:08:58.788Z,12.20
2018-10-03T21:11:27.271Z,12.10
2018-10-03T21:13:55.870Z,12.10
2018-10-03T21:16:24.425Z,12.10
2018-10-03T21:18:53.010Z,12.00
2018-10-03T21:21:21.556Z,11.80
2018-10-03T21:23:50.052Z,11.80
2018-10-03T21:26:18.604Z,11.80
2018-10-03T21:28:47.153Z,11.90
2018-10-03T21:31:16.504Z,12.10
2018-10-03T21:33:45.095Z,12.00
2018-10-03T21:36:13.797Z,12.00
2018-10-03T21:38:43.822Z,12.10
2018-10-03T21:41:13.258Z,12.10
2018-10-03T21:43:41.823Z,12.20
2018-10-03T21:46:10.348Z,12.10
2018-10-03T21:48:39.033Z,12.00
2018-10-03T21:51:07.521Z,12.10
2018-10-03T21:53:36.488Z,12.20
2018-10-03T21:56:04.953Z,12.30
2018-10-03T21:58:33.415Z,12.30
2018-10-03T22:01:01.902Z,12.30
2018-10-03T22:03:30.506Z,12.30
2018-10-03T22:05:59.236Z,12.40
2018-10-03T22:08:27.730Z,12.30
2018-10-03T22:10:56.225Z,12.30
2018-10-03T22:13:24.713Z,12.30
2018-10-03T22:15:53.165Z,12.10
2018-10-03T22:18:21.645Z,12.10
2018-10-03T22:20:50.376Z,12.00
2018-10-03T22:23:18.984Z,12.10
2018-10-03T22:25:48.993Z,12.20
2018-10-03T22:28:17.446Z,12.20
2018-10-03T22:30:45.910Z,12.30
2018-10-03T22:33:14.396Z,12.40
2018-10-03T22:35:42.857Z,12.40
2018-10-03T22:38:11.397Z,12.60
2018-10-03T22:40:39.915Z,12.70
2018-10-03T22:43:08.417Z,12.80
2018-10-03T22:45:36.848Z,12.80
2018-10-03T22:48:05.394Z,12.80
2018-10-03T22:50:33.848Z,12.70
2018-10-03T22:53:02.334Z,12.70
2018-10-03T22:55:30.819Z,12.70
2018-10-03T22:57:59.289Z,12.80
2018-10-03T23:00:27.709Z,12.90
2018-10-03T23:02:56.193Z,13.00
2018-10-03T23:05:24.712Z,13.00
2018-10-03T23:07:53.322Z,13.00
2018-10-03T23:10:21.804Z,12.70
2018-10-03T23:12:50.322Z,12.70
2018-10-03T23:15:18.769Z,12.60
2018-10-03T23:17:47.313Z,12.70
2018-10-03T23:20:15.788Z,12.70
2018-10-03T23:22:44.274Z,12.70
2018-10-03T23:25:12.754Z,12.70
2018-10-03T23:27:41.288Z,12.60
2018-10-03T23:30:09.780Z,12.50
2018-10-03T23:32:38.265Z,12.50
2018-10-03T23:35:07.709Z,12.50
2018-10-03T23:37:36.171Z,12.50
2018-10-03T23:40:04.695Z,12.50
2018-10-03T23:42:33.121Z,12.50
2018-10-03T23:45:01.574Z,12.50
2018-10-03T23:47:30.030Z,12.50
2018-10-03T23:49:58.514Z,12.50
2018-10-03T23:52:26.952Z,12.50
2018-10-03T23:54:55.457Z,12.50
2018-10-03T23:57:24.002Z,12.40
2018-10-03T23:59:52.454Z,12.40
